sensor_id;sensor_type;location;lat;lon;timestamp;temperature;humidity
23124;DHT22;11731;48.592;8.858;2023-11-21T00:01:32;10.80;99.90
23124;DHT22;11731;48.592;8.858;2023-11-21T00:03:59;10.80;99.90
23124;DHT22;11731;48.592;8.858;2023-11-21T00:06:28;11.00;99.90
23124;DHT22;11731;48.592;8.858;2023-11-21T00:09:10;11.10;99.90
23124;DHT22;11731;48.592;8.858;2023-11-21T00:11:39;11.20;99.90
23124;DHT22;11731;48.592;8.858;2023-11-21T00:14:16;11.20;99.90
23124;DHT22;11731;48.592;8.858;2023-11-21T00:16:56;11.30;99.90
23124;DHT22;11731;48.592;8.858;2023-11-21T00:19:23;11.50;99.90
23124;DHT22;11731;48.592;8.858;2023-11-21T00:21:50;11.50;99.90
23124;DHT22;11731;48.592;8.858;2023-11-21T00:24:17;11.60;99.90
23124;DHT22;11731;48.592;8.858;2023-11-21T00:26:45;11.70;99.90
23124;DHT22;11731;48.592;8.858;2023-11-21T00:29:14;11.50;99.90
23124;DHT22;11731;48.592;8.858;2023-11-21T00:32:06;11.40;99.90
23124;DHT22;11731;48.592;8.858;2023-11-21T00:34:34;11.30;99.90
23124;DHT22;11731;48.592;8.858;2023-11-21T00:37:15;11.20;99.90
23124;DHT22;11731;48.592;8.858;2023-11-21T00:39:42;11.10;99.90
23124;DHT22;11731;48.592;8.858;2023-11-21T00:45:21;10.40;99.90
23124;DHT22;11731;48.592;8.858;2023-11-21T00:47:48;10.00;99.90
23124;DHT22;11731;48.592;8.858;2023-11-21T00:50:17;10.10;99.90
23124;DHT22;11731;48.592;8.858;2023-11-21T00:52:44;10.00;99.90
23124;DHT22;11731;48.592;8.858;2023-11-21T00:55:11;9.90;99.90
23124;DHT22;11731;48.592;8.858;2023-11-21T00:57:38;10.10;99.90
23124;DHT22;11731;48.592;8.858;2023-11-21T01:00:06;10.20;99.90
23124;DHT22;11731;48.592;8.858;2023-11-21T01:02:37;10.40;99.90
23124;DHT22;11731;48.592;8.858;2023-11-21T01:05:05;10.70;99.90
23124;DHT22;11731;48.592;8.858;2023-11-21T01:07:33;10.90;99.90
23124;DHT22;11731;48.592;8.858;2023-11-21T01:10:02;11.00;99.90
23124;DHT22;11731;48.592;8.858;2023-11-21T01:12:31;10.80;99.90
23124;DHT22;11731;48.592;8.858;2023-11-21T01:14:58;10.60;99.90
23124;DHT22;11731;48.592;8.858;2023-11-21T01:17:26;10.60;99.90
23124;DHT22;11731;48.592;8.858;2023-11-21T01:22:50;10.30;99.90
23124;DHT22;11731;48.592;8.858;2023-11-21T01:25:17;10.00;99.90
23124;DHT22;11731;48.592;8.858;2023-11-21T01:27:44;10.00;99.90
23124;DHT22;11731;48.592;8.858;2023-11-21T01:30:11;10.10;99.90
23124;DHT22;11731;48.592;8.858;2023-11-21T01:32:38;10.50;99.90
23124;DHT22;11731;48.592;8.858;2023-11-21T01:35:06;10.70;99.90
23124;DHT22;11731;48.592;8.858;2023-11-21T01:37:33;10.90;99.90
23124;DHT22;11731;48.592;8.858;2023-11-21T01:40:01;11.10;99.90
23124;DHT22;11731;48.592;8.858;2023-11-21T01:42:49;11.10;99.90
23124;DHT22;11731;48.592;8.858;2023-11-21T01:45:16;11.20;99.90
23124;DHT22;11731;48.592;8.858;2023-11-21T01:47:44;11.30;99.90
23124;DHT22;11731;48.592;8.858;2023-11-21T01:50:15;11.00;99.90
23124;DHT22;11731;48.592;8.858;2023-11-21T01:52:46;10.90;99.90
23124;DHT22;11731;48.592;8.858;2023-11-21T01:55:17;10.70;99.90
23124;DHT22;11731;48.592;8.858;2023-11-21T01:57:45;10.50;99.90
23124;DHT22;11731;48.592;8.858;2023-11-21T02:00:13;10.40;99.90
23124;DHT22;11731;48.592;8.858;2023-11-21T02:02:42;10.30;99.90
23124;DHT22;11731;48.592;8.858;2023-11-21T02:05:10;10.00;99.90
23124;DHT22;11731;48.592;8.858;2023-11-21T02:07:44;10.10;99.90
23124;DHT22;11731;48.592;8.858;2023-11-21T02:10:13;10.00;99.90
23124;DHT22;11731;48.592;8.858;2023-11-21T02:12:43;9.70;99.90
23124;DHT22;11731;48.592;8.858;2023-11-21T02:15:10;9.70;99.90
23124;DHT22;11731;48.592;8.858;2023-11-21T02:17:45;9.90;99.90
23124;DHT22;11731;48.592;8.858;2023-11-21T02:20:13;10.30;99.90
23124;DHT22;11731;48.592;8.858;2023-11-21T02:22:41;10.60;99.90
23124;DHT22;11731;48.592;8.858;2023-11-21T02:25:20;10.80;99.90
23124;DHT22;11731;48.592;8.858;2023-11-21T02:27:48;10.80;99.90
23124;DHT22;11731;48.592;8.858;2023-11-21T02:30:15;10.80;99.90
23124;DHT22;11731;48.592;8.858;2023-11-21T02:32:42;10.90;99.90
23124;DHT22;11731;48.592;8.858;2023-11-21T02:35:09;11.10;99.90
23124;DHT22;11731;48.592;8.858;2023-11-21T02:37:37;11.10;99.90
23124;DHT22;11731;48.592;8.858;2023-11-21T02:40:08;11.30;99.90
23124;DHT22;11731;48.592;8.858;2023-11-21T02:42:41;11.40;99.90
23124;DHT22;11731;48.592;8.858;2023-11-21T02:45:17;11.40;99.90
23124;DHT22;11731;48.592;8.858;2023-11-21T02:47:46;11.30;99.90
23124;DHT22;11731;48.592;8.858;2023-11-21T02:50:14;11.30;99.90
23124;DHT22;11731;48.592;8.858;2023-11-21T02:52:41;11.30;99.90
23124;DHT22;11731;48.592;8.858;2023-11-21T02:55:09;11.30;99.90
23124;DHT22;11731;48.592;8.858;2023-11-21T02:57:38;11.30;99.90
23124;DHT22;11731;48.592;8.858;2023-11-21T03:00:16;11.10;99.90
23124;DHT22;11731;48.592;8.858;2023-11-21T03:02:49;11.10;99.90
23124;DHT22;11731;48.592;8.858;2023-11-21T03:05:32;11.20;99.90
23124;DHT22;11731;48.592;8.858;2023-11-21T03:08:01;11.30;99.90
23124;DHT22;11731;48.592;8.858;2023-11-21T03:10:27;11.40;99.90
23124;DHT22;11731;48.592;8.858;2023-11-21T03:12:56;11.40;99.90
23124;DHT22;11731;48.592;8.858;2023-11-21T03:15:23;11.10;99.90
23124;DHT22;11731;48.592;8.858;2023-11-21T03:17:50;11.00;99.90
23124;DHT22;11731;48.592;8.858;2023-11-21T03:20:17;11.10;99.90
23124;DHT22;11731;48.592;8.858;2023-11-21T03:22:44;11.20;99.90
23124;DHT22;11731;48.592;8.858;2023-11-21T03:25:11;11.30;99.90
23124;DHT22;11731;48.592;8.858;2023-11-21T03:27:38;11.20;99.90
23124;DHT22;11731;48.592;8.858;2023-11-21T03:30:09;11.20;99.90
23124;DHT22;11731;48.592;8.858;2023-11-21T03:32:37;11.30;99.90
23124;DHT22;11731;48.592;8.858;2023-11-21T03:35:27;11.20;99.90
23124;DHT22;11731;48.592;8.858;2023-11-21T03:38:03;11.20;99.90
23124;DHT22;11731;48.592;8.858;2023-11-21T03:40:30;11.10;99.90
23124;DHT22;11731;48.592;8.858;2023-11-21T03:42:58;11.10;99.90
23124;DHT22;11731;48.592;8.858;2023-11-21T03:45:26;11.20;99.90
23124;DHT22;11731;48.592;8.858;2023-11-21T03:51:08;11.50;99.90
23124;DHT22;11731;48.592;8.858;2023-11-21T03:53:34;11.40;99.90
23124;DHT22;11731;48.592;8.858;2023-11-21T03:56:02;11.20;99.90
23124;DHT22;11731;48.592;8.858;2023-11-21T03:58:29;11.10;99.90
23124;DHT22;11731;48.592;8.858;2023-11-21T04:00:57;11.20;99.90
23124;DHT22;11731;48.592;8.858;2023-11-21T04:03:24;11.10;99.90
23124;DHT22;11731;48.592;8.858;2023-11-21T04:05:51;11.20;99.90
23124;DHT22;11731;48.592;8.858;2023-11-21T04:08:18;11.20;99.90
23124;DHT22;11731;48.592;8.858;2023-11-21T04:10:45;11.10;99.90
23124;DHT22;11731;48.592;8.858;2023-11-21T04:13:12;11.20;99.90
23124;DHT22;11731;48.592;8.858;2023-11-21T04:15:39;11.30;99.90
23124;DHT22;11731;48.592;8.858;2023-11-21T04:18:08;11.30;99.90
23124;DHT22;11731;48.592;8.858;2023-11-21T04:20:41;11.40;99.90
23124;DHT22;11731;48.592;8.858;2023-11-21T04:23:20;11.40;99.90
23124;DHT22;11731;48.592;8.858;2023-11-21T04:25:47;11.60;99.90
23124;DHT22;11731;48.592;8.858;2023-11-21T04:28:35;11.70;99.90
23124;DHT22;11731;48.592;8.858;2023-11-21T04:31:02;11.70;99.90
23124;DHT22;11731;48.592;8.858;2023-11-21T04:33:30;11.70;99.90
23124;DHT22;11731;48.592;8.858;2023-11-21T04:35:57;11.60;99.90
23124;DHT22;11731;48.592;8.858;2023-11-21T04:38:24;11.40;99.90
23124;DHT22;11731;48.592;8.858;2023-11-21T04:40:51;11.30;99.90
23124;DHT22;11731;48.592;8.858;2023-11-21T04:43:18;11.30;99.90
23124;DHT22;11731;48.592;8.858;2023-11-21T04:45:55;11.40;99.90
23124;DHT22;11731;48.592;8.858;2023-11-21T04:48:22;11.50;99.90
23124;DHT22;11731;48.592;8.858;2023-11-21T04:50:50;11.50;99.90
23124;DHT22;11731;48.592;8.858;2023-11-21T04:53:17;11.50;99.90
23124;DHT22;11731;48.592;8.858;2023-11-21T04:56:07;11.40;99.90
23124;DHT22;11731;48.592;8.858;2023-11-21T04:58:53;11.50;99.90
23124;DHT22;11731;48.592;8.858;2023-11-21T05:01:20;11.50;99.90
23124;DHT22;11731;48.592;8.858;2023-11-21T05:03:47;11.60;99.90
23124;DHT22;11731;48.592;8.858;2023-11-21T05:06:15;11.70;99.90
23124;DHT22;11731;48.592;8.858;2023-11-21T05:08:42;11.60;99.90
23124;DHT22;11731;48.592;8.858;2023-11-21T05:11:09;11.70;99.90
23124;DHT22;11731;48.592;8.858;2023-11-21T05:13:37;11.60;99.90
23124;DHT22;11731;48.592;8.858;2023-11-21T05:16:04;11.60;99.90
23124;DHT22;11731;48.592;8.858;2023-11-21T05:18:31;11.40;99.90
23124;DHT22;11731;48.592;8.858;2023-11-21T05:20:59;11.40;99.90
23124;DHT22;11731;48.592;8.858;2023-11-21T05:23:28;11.40;99.90
23124;DHT22;11731;48.592;8.858;2023-11-21T05:25:54;11.30;99.90
23124;DHT22;11731;48.592;8.858;2023-11-21T05:28:22;11.40;99.90
23124;DHT22;11731;48.592;8.858;2023-11-21T05:30:53;11.40;99.90
23124;DHT22;11731;48.592;8.858;2023-11-21T05:33:21;11.60;99.90
23124;DHT22;11731;48.592;8.858;2023-11-21T05:35:48;11.50;99.90
23124;DHT22;11731;48.592;8.858;2023-11-21T05:38:18;11.40;99.90
23124;DHT22;11731;48.592;8.858;2023-11-21T05:41:01;11.30;99.90
23124;DHT22;11731;48.592;8.858;2023-11-21T05:43:29;11.30;99.90
23124;DHT22;11731;48.592;8.858;2023-11-21T05:45:58;11.40;99.90
23124;DHT22;11731;48.592;8.858;2023-11-21T05:48:26;11.50;99.90
23124;DHT22;11731;48.592;8.858;2023-11-21T05:50:53;11.50;99.90
23124;DHT22;11731;48.592;8.858;2023-11-21T05:53:20;11.50;99.90
23124;DHT22;11731;48.592;8.858;2023-11-21T05:55:47;11.30;99.90
23124;DHT22;11731;48.592;8.858;2023-11-21T05:58:18;11.20;99.90
23124;DHT22;11731;48.592;8.858;2023-11-21T06:00:45;11.00;99.90
23124;DHT22;11731;48.592;8.858;2023-11-21T06:03:12;10.90;99.90
23124;DHT22;11731;48.592;8.858;2023-11-21T06:05:39;10.80;99.90
23124;DHT22;11731;48.592;8.858;2023-11-21T06:08:21;10.50;99.90
23124;DHT22;11731;48.592;8.858;2023-11-21T06:10:48;10.70;99.90
23124;DHT22;11731;48.592;8.858;2023-11-21T06:16:48;10.60;99.90
23124;DHT22;11731;48.592;8.858;2023-11-21T06:19:16;10.80;99.90
23124;DHT22;11731;48.592;8.858;2023-11-21T06:21:47;11.00;99.90
23124;DHT22;11731;48.592;8.858;2023-11-21T06:24:18;10.90;99.90
23124;DHT22;11731;48.592;8.858;2023-11-21T06:26:50;10.80;99.90
23124;DHT22;11731;48.592;8.858;2023-11-21T06:29:31;10.90;99.90
23124;DHT22;11731;48.592;8.858;2023-11-21T06:32:00;10.70;99.90
23124;DHT22;11731;48.592;8.858;2023-11-21T06:34:33;10.90;99.90
23124;DHT22;11731;48.592;8.858;2023-11-21T06:37:00;10.90;99.90
23124;DHT22;11731;48.592;8.858;2023-11-21T06:39:46;11.00;99.90
23124;DHT22;11731;48.592;8.858;2023-11-21T06:42:39;11.20;99.90
23124;DHT22;11731;48.592;8.858;2023-11-21T06:45:07;11.10;99.90
23124;DHT22;11731;48.592;8.858;2023-11-21T06:47:59;11.10;99.90
23124;DHT22;11731;48.592;8.858;2023-11-21T06:50:26;11.00;99.90
23124;DHT22;11731;48.592;8.858;2023-11-21T06:52:53;10.90;99.90
23124;DHT22;11731;48.592;8.858;2023-11-21T06:55:20;10.70;99.90
23124;DHT22;11731;48.592;8.858;2023-11-21T06:57:47;10.50;99.90
23124;DHT22;11731;48.592;8.858;2023-11-21T07:00:16;10.30;99.90
23124;DHT22;11731;48.592;8.858;2023-11-21T07:06:08;10.30;99.90
23124;DHT22;11731;48.592;8.858;2023-11-21T07:08:35;10.20;99.90
23124;DHT22;11731;48.592;8.858;2023-11-21T07:11:02;10.20;99.90
23124;DHT22;11731;48.592;8.858;2023-11-21T07:13:31;10.40;99.90
23124;DHT22;11731;48.592;8.858;2023-11-21T07:15:59;10.40;99.90
23124;DHT22;11731;48.592;8.858;2023-11-21T07:18:26;10.60;99.90
23124;DHT22;11731;48.592;8.858;2023-11-21T07:20:53;10.70;99.90
23124;DHT22;11731;48.592;8.858;2023-11-21T07:23:35;10.80;99.90
23124;DHT22;11731;48.592;8.858;2023-11-21T07:26:02;10.80;99.90
23124;DHT22;11731;48.592;8.858;2023-11-21T07:28:37;10.90;99.90
23124;DHT22;11731;48.592;8.858;2023-11-21T07:31:10;11.00;99.90
23124;DHT22;11731;48.592;8.858;2023-11-21T07:33:38;11.00;99.90
23124;DHT22;11731;48.592;8.858;2023-11-21T07:36:05;11.10;99.90
23124;DHT22;11731;48.592;8.858;2023-11-21T07:38:34;11.30;99.90
23124;DHT22;11731;48.592;8.858;2023-11-21T07:41:01;11.40;99.90
23124;DHT22;11731;48.592;8.858;2023-11-21T07:43:28;11.20;99.90
23124;DHT22;11731;48.592;8.858;2023-11-21T07:46:00;11.00;99.90
23124;DHT22;11731;48.592;8.858;2023-11-21T07:48:28;10.90;99.90
23124;DHT22;11731;48.592;8.858;2023-11-21T07:50:55;10.90;99.90
23124;DHT22;11731;48.592;8.858;2023-11-21T07:53:22;11.00;99.90
23124;DHT22;11731;48.592;8.858;2023-11-21T07:55:50;11.10;99.90
23124;DHT22;11731;48.592;8.858;2023-11-21T07:58:17;11.30;99.90
23124;DHT22;11731;48.592;8.858;2023-11-21T08:00:44;11.10;99.90
23124;DHT22;11731;48.592;8.858;2023-11-21T08:03:11;11.40;99.90
23124;DHT22;11731;48.592;8.858;2023-11-21T08:05:38;11.60;99.90
23124;DHT22;11731;48.592;8.858;2023-11-21T08:08:05;11.60;99.90
23124;DHT22;11731;48.592;8.858;2023-11-21T08:10:33;11.60;99.90
23124;DHT22;11731;48.592;8.858;2023-11-21T08:13:02;11.70;99.90
23124;DHT22;11731;48.592;8.858;2023-11-21T08:15:29;11.80;99.90
23124;DHT22;11731;48.592;8.858;2023-11-21T08:17:57;11.80;99.90
23124;DHT22;11731;48.592;8.858;2023-11-21T08:20:24;11.90;99.90
23124;DHT22;11731;48.592;8.858;2023-11-21T08:22:51;11.80;99.90
23124;DHT22;11731;48.592;8.858;2023-11-21T08:25:26;11.80;99.90
23124;DHT22;11731;48.592;8.858;2023-11-21T08:27:56;12.20;99.90
23124;DHT22;11731;48.592;8.858;2023-11-21T08:30:24;12.30;99.90
23124;DHT22;11731;48.592;8.858;2023-11-21T08:33:27;12.00;99.90
23124;DHT22;11731;48.592;8.858;2023-11-21T08:35:54;11.90;99.90
23124;DHT22;11731;48.592;8.858;2023-11-21T08:38:21;12.00;99.90
23124;DHT22;11731;48.592;8.858;2023-11-21T08:40:48;12.00;99.90
23124;DHT22;11731;48.592;8.858;2023-11-21T08:43:15;12.20;99.90
23124;DHT22;11731;48.592;8.858;2023-11-21T08:45:46;12.40;99.90
23124;DHT22;11731;48.592;8.858;2023-11-21T08:48:13;12.20;99.90
23124;DHT22;11731;48.592;8.858;2023-11-21T08:50:41;12.20;99.90
23124;DHT22;11731;48.592;8.858;2023-11-21T08:53:08;12.60;99.90
23124;DHT22;11731;48.592;8.858;2023-11-21T08:55:36;12.80;99.90
23124;DHT22;11731;48.592;8.858;2023-11-21T08:58:03;12.60;99.90
23124;DHT22;11731;48.592;8.858;2023-11-21T09:00:32;12.60;99.90
23124;DHT22;11731;48.592;8.858;2023-11-21T09:03:01;12.50;99.90
23124;DHT22;11731;48.592;8.858;2023-11-21T09:05:29;12.60;99.90
23124;DHT22;11731;48.592;8.858;2023-11-21T09:07:57;12.90;99.90
23124;DHT22;11731;48.592;8.858;2023-11-21T09:10:24;13.20;99.90
23124;DHT22;11731;48.592;8.858;2023-11-21T09:12:51;13.30;99.90
23124;DHT22;11731;48.592;8.858;2023-11-21T09:15:18;13.50;99.90
23124;DHT22;11731;48.592;8.858;2023-11-21T09:17:45;13.20;99.90
23124;DHT22;11731;48.592;8.858;2023-11-21T09:20:14;13.30;99.90
23124;DHT22;11731;48.592;8.858;2023-11-21T09:22:41;13.10;99.90
23124;DHT22;11731;48.592;8.858;2023-11-21T09:25:10;13.20;99.90
23124;DHT22;11731;48.592;8.858;2023-11-21T09:27:37;13.30;99.90
23124;DHT22;11731;48.592;8.858;2023-11-21T09:30:05;13.10;99.90
23124;DHT22;11731;48.592;8.858;2023-11-21T09:32:34;13.20;99.90
23124;DHT22;11731;48.592;8.858;2023-11-21T09:35:02;12.90;99.90
23124;DHT22;11731;48.592;8.858;2023-11-21T09:37:31;13.00;99.90
23124;DHT22;11731;48.592;8.858;2023-11-21T09:39:58;13.10;99.90
23124;DHT22;11731;48.592;8.858;2023-11-21T09:42:30;13.30;99.90
23124;DHT22;11731;48.592;8.858;2023-11-21T09:45:03;13.60;99.90
23124;DHT22;11731;48.592;8.858;2023-11-21T09:47:34;13.50;99.90
23124;DHT22;11731;48.592;8.858;2023-11-21T09:50:02;13.50;99.90
23124;DHT22;11731;48.592;8.858;2023-11-21T09:52:32;13.50;99.90
23124;DHT22;11731;48.592;8.858;2023-11-21T09:55:00;13.60;99.90
23124;DHT22;11731;48.592;8.858;2023-11-21T09:57:53;13.90;99.90
23124;DHT22;11731;48.592;8.858;2023-11-21T10:00:22;13.90;99.90
23124;DHT22;11731;48.592;8.858;2023-11-21T10:02:49;14.00;99.90
23124;DHT22;11731;48.592;8.858;2023-11-21T10:05:18;14.10;99.90
23124;DHT22;11731;48.592;8.858;2023-11-21T10:07:51;14.40;99.90
23124;DHT22;11731;48.592;8.858;2023-11-21T10:10:27;14.40;99.90
23124;DHT22;11731;48.592;8.858;2023-11-21T10:13:12;14.50;99.90
23124;DHT22;11731;48.592;8.858;2023-11-21T10:16:20;14.40;99.90
23124;DHT22;11731;48.592;8.858;2023-11-21T10:22:12;14.40;99.90
23124;DHT22;11731;48.592;8.858;2023-11-21T10:31:23;14.60;99.90
23124;DHT22;11731;48.592;8.858;2023-11-21T10:34:39;14.60;99.90
23124;DHT22;11731;48.592;8.858;2023-11-21T10:40:40;14.90;99.90
23124;DHT22;11731;48.592;8.858;2023-11-21T10:43:25;14.40;99.90
23124;DHT22;11731;48.592;8.858;2023-11-21T10:45:57;14.40;99.90
23124;DHT22;11731;48.592;8.858;2023-11-21T10:48:38;14.10;99.90
23124;DHT22;11731;48.592;8.858;2023-11-21T10:51:25;14.00;99.90
23124;DHT22;11731;48.592;8.858;2023-11-21T10:53:59;13.40;99.90
23124;DHT22;11731;48.592;8.858;2023-11-21T10:56:27;12.80;99.90
23124;DHT22;11731;48.592;8.858;2023-11-21T10:59:22;12.40;99.90
23124;DHT22;11731;48.592;8.858;2023-11-21T11:01:51;12.40;99.90
23124;DHT22;11731;48.592;8.858;2023-11-21T11:04:20;12.80;99.90
23124;DHT22;11731;48.592;8.858;2023-11-21T11:06:51;13.00;99.90
23124;DHT22;11731;48.592;8.858;2023-11-21T11:12:50;12.70;99.90
23124;DHT22;11731;48.592;8.858;2023-11-21T11:15:48;13.00;99.90
23124;DHT22;11731;48.592;8.858;2023-11-21T11:21:52;13.20;99.90
23124;DHT22;11731;48.592;8.858;2023-11-21T11:27:47;13.40;99.90
23124;DHT22;11731;48.592;8.858;2023-11-21T11:30:24;13.40;99.90
23124;DHT22;11731;48.592;8.858;2023-11-21T11:33:01;13.40;99.90
23124;DHT22;11731;48.592;8.858;2023-11-21T11:35:38;13.40;99.90
23124;DHT22;11731;48.592;8.858;2023-11-21T11:38:12;13.40;99.90
23124;DHT22;11731;48.592;8.858;2023-11-21T11:43:52;13.70;99.90
23124;DHT22;11731;48.592;8.858;2023-11-21T11:46:19;13.60;99.90
23124;DHT22;11731;48.592;8.858;2023-11-21T11:49:23;13.70;99.90
23124;DHT22;11731;48.592;8.858;2023-11-21T11:54:53;13.80;99.90
23124;DHT22;11731;48.592;8.858;2023-11-21T11:57:24;13.90;99.90
23124;DHT22;11731;48.592;8.858;2023-11-21T12:00:16;14.00;99.90
23124;DHT22;11731;48.592;8.858;2023-11-21T12:02:47;13.60;99.90
23124;DHT22;11731;48.592;8.858;2023-11-21T12:06:14;12.40;99.90
23124;DHT22;11731;48.592;8.858;2023-11-21T12:08:34;11.40;99.90
23124;DHT22;11731;48.592;8.858;2023-11-21T12:11:06;11.10;99.90
23124;DHT22;11731;48.592;8.858;2023-11-21T12:13:36;10.90;99.90
23124;DHT22;11731;48.592;8.858;2023-11-21T12:16:12;10.40;99.90
23124;DHT22;11731;48.592;8.858;2023-11-21T12:18:39;10.00;99.90
23124;DHT22;11731;48.592;8.858;2023-11-21T12:21:18;10.10;99.90
23124;DHT22;11731;48.592;8.858;2023-11-21T12:23:45;10.30;99.90
23124;DHT22;11731;48.592;8.858;2023-11-21T12:29:24;10.30;99.90
23124;DHT22;11731;48.592;8.858;2023-11-21T12:31:51;10.30;99.90
23124;DHT22;11731;48.592;8.858;2023-11-21T12:34:18;10.20;99.90
23124;DHT22;11731;48.592;8.858;2023-11-21T12:36:45;10.20;99.90
23124;DHT22;11731;48.592;8.858;2023-11-21T12:39:12;10.20;99.90
23124;DHT22;11731;48.592;8.858;2023-11-21T12:41:40;10.40;99.90
23124;DHT22;11731;48.592;8.858;2023-11-21T12:44:11;10.40;99.90
23124;DHT22;11731;48.592;8.858;2023-11-21T12:46:44;10.50;99.90
23124;DHT22;11731;48.592;8.858;2023-11-21T12:49:12;10.30;99.90
23124;DHT22;11731;48.592;8.858;2023-11-21T12:51:43;10.50;99.90
23124;DHT22;11731;48.592;8.858;2023-11-21T12:54:10;10.60;99.90
23124;DHT22;11731;48.592;8.858;2023-11-21T12:56:38;10.40;99.90
23124;DHT22;11731;48.592;8.858;2023-11-21T12:59:05;10.30;99.90
23124;DHT22;11731;48.592;8.858;2023-11-21T13:01:32;10.30;99.90
23124;DHT22;11731;48.592;8.858;2023-11-21T13:04:07;10.70;99.90
23124;DHT22;11731;48.592;8.858;2023-11-21T13:06:36;10.90;99.90
23124;DHT22;11731;48.592;8.858;2023-11-21T13:09:06;10.60;99.90
23124;DHT22;11731;48.592;8.858;2023-11-21T13:11:36;10.50;99.90
23124;DHT22;11731;48.592;8.858;2023-11-21T13:14:06;10.20;99.90
23124;DHT22;11731;48.592;8.858;2023-11-21T13:16:43;10.00;99.90
23124;DHT22;11731;48.592;8.858;2023-11-21T13:19:13;9.90;99.90
23124;DHT22;11731;48.592;8.858;2023-11-21T13:22:01;9.90;99.90
23124;DHT22;11731;48.592;8.858;2023-11-21T13:24:30;10.00;99.90
23124;DHT22;11731;48.592;8.858;2023-11-21T13:26:57;10.20;99.90
23124;DHT22;11731;48.592;8.858;2023-11-21T13:29:24;10.00;99.90
23124;DHT22;11731;48.592;8.858;2023-11-21T13:31:52;10.10;99.90
23124;DHT22;11731;48.592;8.858;2023-11-21T13:34:20;10.20;99.90
23124;DHT22;11731;48.592;8.858;2023-11-21T13:36:48;10.40;99.90
23124;DHT22;11731;48.592;8.858;2023-11-21T13:39:19;10.50;99.90
23124;DHT22;11731;48.592;8.858;2023-11-21T13:42:52;10.70;99.90
23124;DHT22;11731;48.592;8.858;2023-11-21T13:47:52;10.50;99.90
23124;DHT22;11731;48.592;8.858;2023-11-21T13:50:24;10.20;99.90
23124;DHT22;11731;48.592;8.858;2023-11-21T13:53:02;10.50;99.90
23124;DHT22;11731;48.592;8.858;2023-11-21T13:55:59;10.70;99.90
23124;DHT22;11731;48.592;8.858;2023-11-21T13:58:40;10.50;99.90
23124;DHT22;11731;48.592;8.858;2023-11-21T14:04:42;10.70;99.90
23124;DHT22;11731;48.592;8.858;2023-11-21T14:07:23;10.50;99.90
23124;DHT22;11731;48.592;8.858;2023-11-21T14:10:01;10.50;99.90
23124;DHT22;11731;48.592;8.858;2023-11-21T14:12:50;10.50;99.90
23124;DHT22;11731;48.592;8.858;2023-11-21T14:18:06;10.20;99.90
23124;DHT22;11731;48.592;8.858;2023-11-21T14:19:00;10.00;99.90
23124;DHT22;11731;48.592;8.858;2023-11-21T14:21:39;10.10;99.90
23124;DHT22;11731;48.592;8.858;2023-11-21T14:24:10;10.10;99.90
23124;DHT22;11731;48.592;8.858;2023-11-21T14:26:39;10.30;99.90
23124;DHT22;11731;48.592;8.858;2023-11-21T14:29:15;9.90;99.90
23124;DHT22;11731;48.592;8.858;2023-11-21T14:31:45;10.00;99.90
23124;DHT22;11731;48.592;8.858;2023-11-21T14:34:18;10.00;99.90
23124;DHT22;11731;48.592;8.858;2023-11-21T14:36:45;10.00;99.90
23124;DHT22;11731;48.592;8.858;2023-11-21T14:39:13;10.10;99.90
23124;DHT22;11731;48.592;8.858;2023-11-21T14:41:48;10.30;99.90
23124;DHT22;11731;48.592;8.858;2023-11-21T14:44:20;9.90;99.90
23124;DHT22;11731;48.592;8.858;2023-11-21T14:46:53;9.40;99.90
23124;DHT22;11731;48.592;8.858;2023-11-21T14:49:37;9.40;99.90
23124;DHT22;11731;48.592;8.858;2023-11-21T14:52:19;9.40;99.90
23124;DHT22;11731;48.592;8.858;2023-11-21T14:58:34;9.30;99.90
23124;DHT22;11731;48.592;8.858;2023-11-21T15:01:02;9.30;99.90
23124;DHT22;11731;48.592;8.858;2023-11-21T15:03:29;9.20;99.90
23124;DHT22;11731;48.592;8.858;2023-11-21T15:06:12;9.20;99.90
23124;DHT22;11731;48.592;8.858;2023-11-21T15:09:07;9.40;99.90
23124;DHT22;11731;48.592;8.858;2023-11-21T15:11:51;9.20;99.90
23124;DHT22;11731;48.592;8.858;2023-11-21T15:14:25;9.30;99.90
23124;DHT22;11731;48.592;8.858;2023-11-21T15:16:57;9.20;99.90
23124;DHT22;11731;48.592;8.858;2023-11-21T15:19:48;9.10;99.90
23124;DHT22;11731;48.592;8.858;2023-11-21T15:22:43;9.00;99.90
23124;DHT22;11731;48.592;8.858;2023-11-21T15:25:12;9.00;99.90
23124;DHT22;11731;48.592;8.858;2023-11-21T15:27:41;8.90;99.90
23124;DHT22;11731;48.592;8.858;2023-11-21T15:33:07;8.80;99.90
23124;DHT22;11731;48.592;8.858;2023-11-21T15:35:34;8.70;99.90
23124;DHT22;11731;48.592;8.858;2023-11-21T15:38:12;8.70;99.90
23124;DHT22;11731;48.592;8.858;2023-11-21T15:40:39;8.70;99.90
23124;DHT22;11731;48.592;8.858;2023-11-21T15:43:42;8.50;99.90
23124;DHT22;11731;48.592;8.858;2023-11-21T15:46:02;8.40;99.90
23124;DHT22;11731;48.592;8.858;2023-11-21T15:48:34;8.70;99.90
23124;DHT22;11731;48.592;8.858;2023-11-21T15:51:10;8.80;99.90
23124;DHT22;11731;48.592;8.858;2023-11-21T15:53:38;8.60;99.90
23124;DHT22;11731;48.592;8.858;2023-11-21T15:56:05;8.50;99.90
23124;DHT22;11731;48.592;8.858;2023-11-21T15:58:37;8.70;99.90
23124;DHT22;11731;48.592;8.858;2023-11-21T16:01:05;8.70;99.90
23124;DHT22;11731;48.592;8.858;2023-11-21T16:03:35;8.90;99.90
23124;DHT22;11731;48.592;8.858;2023-11-21T16:06:02;8.80;99.90
23124;DHT22;11731;48.592;8.858;2023-11-21T16:08:35;9.00;99.90
23124;DHT22;11731;48.592;8.858;2023-11-21T16:11:24;9.30;99.90
23124;DHT22;11731;48.592;8.858;2023-11-21T16:13:59;9.30;99.90
23124;DHT22;11731;48.592;8.858;2023-11-21T16:16:26;9.10;99.90
23124;DHT22;11731;48.592;8.858;2023-11-21T16:19:13;9.10;99.90
23124;DHT22;11731;48.592;8.858;2023-11-21T16:21:39;9.00;99.90
23124;DHT22;11731;48.592;8.858;2023-11-21T16:24:07;9.00;99.90
23124;DHT22;11731;48.592;8.858;2023-11-21T16:26:51;8.90;99.90
23124;DHT22;11731;48.592;8.858;2023-11-21T16:29:18;9.00;99.90
23124;DHT22;11731;48.592;8.858;2023-11-21T16:31:45;8.80;99.90
23124;DHT22;11731;48.592;8.858;2023-11-21T16:34:20;8.80;99.90
23124;DHT22;11731;48.592;8.858;2023-11-21T16:36:55;8.80;99.90
23124;DHT22;11731;48.592;8.858;2023-11-21T16:39:22;8.90;99.90
23124;DHT22;11731;48.592;8.858;2023-11-21T16:41:49;8.80;99.90
23124;DHT22;11731;48.592;8.858;2023-11-21T16:44:19;8.70;99.90
23124;DHT22;11731;48.592;8.858;2023-11-21T16:46:47;8.80;99.90
23124;DHT22;11731;48.592;8.858;2023-11-21T16:49:15;8.70;99.90
23124;DHT22;11731;48.592;8.858;2023-11-21T16:51:45;8.90;99.90
23124;DHT22;11731;48.592;8.858;2023-11-21T16:54:26;8.90;99.90
23124;DHT22;11731;48.592;8.858;2023-11-21T16:57:00;8.90;99.90
23124;DHT22;11731;48.592;8.858;2023-11-21T16:59:28;8.90;99.90
23124;DHT22;11731;48.592;8.858;2023-11-21T17:02:24;8.80;99.90
23124;DHT22;11731;48.592;8.858;2023-11-21T17:04:51;8.90;99.90